Bow, Washington
Current Conditions -  °F | °C
As of 7:55 PM on Saturday 20 Dec 2014 (Local Time) from KBVS Reporting Station
Overcast Overcast  
Wind Chill: 52°   Ceiling: 2500
Heat Index: 52°   Visibility: 10mi
Dew Point: 52°   Wind: 5mph
Humidity: 100%   Direction: 190°S
Pressure: 29.42"   Gusts: NA
Location:  48.56°N, 122.4°W
Report Text: KBVS 210355Z AUTO 19004KT 10SM SCT009 BKN025 OVC032 11/11 A2942 RMK A01 P002
Loading
Personal Weather Stations






























Interactive Weather Map New forecast layout! Learn more

10-Day Weather Forecast

Advertisements
Track Severe Weather on mobile